Time,TemperatureF,DewpointF,PressureIn,WindDirection,WindDirectionDegrees,WindSpeedMPH,WindSpeedGustMPH,Humidity,HourlyPrecipIn,Conditions,Clouds,dailyrainin,SoftwareType,DateUTC
2013-12-30 00:02:00,25.0,22.8,30.04,West,270,3.7,-999.0,91,-99.99,,,0.00,Acu-Link.com,2013-12-30 05:02:00,
2013-12-30 00:17:00,24.8,22.3,30.05,WNW,292,3.7,-999.0,90,-99.99,,,0.00,Acu-Link.com,2013-12-30 05:17:00,
2013-12-30 00:32:00,24.6,21.8,30.05,West,270,3.7,-999.0,89,-99.99,,,0.00,Acu-Link.com,2013-12-30 05:32:00,
2013-12-30 00:47:00,24.4,21.6,30.05,SW,225,2.2,-999.0,89,-99.99,,,0.00,Acu-Link.com,2013-12-30 05:47:00,
2013-12-30 01:02:00,24.3,21.5,30.06,North,0,6.8,-999.0,89,-99.99,,,0.00,Acu-Link.com,2013-12-30 06:02:00,
2013-12-30 01:17:00,24.1,21.3,30.06,WSW,247,3.7,-999.0,89,-99.99,,,0.00,Acu-Link.com,2013-12-30 06:17:00,
2013-12-30 01:32:00,23.9,21.1,30.06,NNW,337,3.7,-999.0,89,-99.99,,,0.00,Acu-Link.com,2013-12-30 06:32:00,
2013-12-30 01:48:00,23.9,21.4,30.07,ENE,67,4.7,-999.0,90,-99.99,,,0.00,Acu-Link.com,2013-12-30 06:48:00,
2013-12-30 02:03:00,23.7,21.2,30.08,WSW,247,4.2,-999.0,90,-99.99,,,0.00,Acu-Link.com,2013-12-30 07:03:00,
2013-12-30 02:18:00,23.2,20.4,30.09,SW,225,5.3,-999.0,89,-99.99,,,0.00,Acu-Link.com,2013-12-30 07:18:00,
2013-12-30 02:33:00,23.0,20.0,30.08,WSW,247,6.8,-999.0,88,-99.99,,,0.00,Acu-Link.com,2013-12-30 07:33:00,
2013-12-30 02:48:00,22.6,19.6,30.09,North,0,5.3,-999.0,88,-99.99,,,0.00,Acu-Link.com,2013-12-30 07:48:00,
2013-12-30 03:03:00,22.1,19.4,30.10,SW,225,2.2,-999.0,89,-99.99,,,0.00,Acu-Link.com,2013-12-30 08:03:00,
2013-12-30 03:19:00,21.9,19.2,30.10,SSE,157,4.7,-999.0,89,-99.99,,,0.00,Acu-Link.com,2013-12-30 08:19:00,
2013-12-30 03:34:00,21.4,18.4,30.10,North,0,2.7,-999.0,88,-99.99,,,0.00,Acu-Link.com,2013-12-30 08:34:00,
2013-12-30 03:49:00,21.0,18.0,30.10,ESE,112,4.7,-999.0,88,-99.99,,,0.00,Acu-Link.com,2013-12-30 08:49:00,
2013-12-30 04:04:00,20.8,17.8,30.10,SE,135,2.7,-999.0,88,-99.99,,,0.00,Acu-Link.com,2013-12-30 09:04:00,
2013-12-30 04:19:00,20.7,17.5,30.10,NNW,337,3.7,-999.0,87,-99.99,,,0.00,Acu-Link.com,2013-12-30 09:19:00,
2013-12-30 04:34:00,20.3,17.1,30.10,WNW,292,8.9,-999.0,87,-99.99,,,0.00,Acu-Link.com,2013-12-30 09:34:00,
2013-12-30 04:49:00,19.8,17.4,30.11,West,270,3.7,-999.0,90,-99.99,,,0.00,Acu-Link.com,2013-12-30 09:49:00,
2013-12-30 05:04:00,19.2,16.8,30.11,WNW,292,5.3,-999.0,90,-99.99,,,0.00,Acu-Link.com,2013-12-30 10:04:00,
2013-12-30 05:19:00,19.0,16.6,30.12,West,270,5.8,-999.0,90,-99.99,,,0.00,Acu-Link.com,2013-12-30 10:19:00,
2013-12-30 05:35:00,18.9,16.5,30.12,NW,315,2.2,-999.0,90,-99.99,,,0.00,Acu-Link.com,2013-12-30 10:35:00,
2013-12-30 05:50:00,18.9,16.2,30.12,WNW,292,2.7,-999.0,89,-99.99,,,0.00,Acu-Link.com,2013-12-30 10:50:00,
2013-12-30 06:05:00,18.5,15.8,30.13,WSW,247,4.2,-999.0,89,-99.99,,,0.00,Acu-Link.com,2013-12-30 11:05:00,
2013-12-30 06:20:00,18.3,15.1,30.14,NNE,22,4.2,-999.0,87,-99.99,,,0.00,Acu-Link.com,2013-12-30 11:20:00,
2013-12-30 06:35:00,18.1,14.9,30.15,SSW,202,5.8,-999.0,87,-99.99,,,0.00,Acu-Link.com,2013-12-30 11:35:00,
2013-12-30 06:50:00,17.8,14.6,30.15,West,270,4.2,-999.0,87,-99.99,,,0.00,Acu-Link.com,2013-12-30 11:50:00,
2013-12-30 07:05:00,17.6,13.9,30.16,West,270,3.7,-999.0,85,-99.99,,,0.00,Acu-Link.com,2013-12-30 12:05:00,
2013-12-30 07:20:00,17.2,13.2,30.17,WSW,247,3.2,-999.0,84,-99.99,,,0.00,Acu-Link.com,2013-12-30 12:20:00,
2013-12-30 07:35:00,17.2,12.4,30.17,South,180,2.2,-999.0,81,-99.99,,,0.00,Acu-Link.com,2013-12-30 12:35:00,
2013-12-30 07:50:00,16.9,12.4,30.17,WSW,247,1.7,-999.0,82,-99.99,,,0.00,Acu-Link.com,2013-12-30 12:50:00,
2013-12-30 08:06:00,16.5,12.3,30.18,WSW,247,2.7,-999.0,83,-99.99,,,0.00,Acu-Link.com,2013-12-30 13:06:00,
2013-12-30 08:21:00,16.3,12.1,30.17,West,270,1.7,-999.0,83,-99.99,,,0.00,Acu-Link.com,2013-12-30 13:21:00,
2013-12-30 08:36:00,16.7,12.5,30.17,SW,225,0.0,-999.0,83,-99.99,,,0.00,Acu-Link.com,2013-12-30 13:36:00,
2013-12-30 08:51:00,17.1,12.6,30.17,NW,315,0.0,-999.0,82,-99.99,,,0.00,Acu-Link.com,2013-12-30 13:51:00,
2013-12-30 09:06:00,17.6,12.8,30.17,North,0,0.0,-999.0,81,-99.99,,,0.00,Acu-Link.com,2013-12-30 14:06:00,
2013-12-30 09:21:00,17.8,12.7,30.17,North,0,1.7,-999.0,80,-99.99,,,0.00,Acu-Link.com,2013-12-30 14:21:00,
2013-12-30 09:36:00,18.3,13.5,30.18,NNW,337,1.1,-999.0,81,-99.99,,,0.00,Acu-Link.com,2013-12-30 14:36:00,
2013-12-30 09:51:00,18.3,12.6,30.18,East,90,2.7,-999.0,78,-99.99,,,0.00,Acu-Link.com,2013-12-30 14:51:00,
2013-12-30 10:06:00,18.9,12.3,30.19,West,270,1.1,-999.0,75,-99.99,,,0.00,Acu-Link.com,2013-12-30 15:06:00,
2013-12-30 10:22:00,19.0,12.4,30.19,West,270,2.7,-999.0,75,-99.99,,,0.00,Acu-Link.com,2013-12-30 15:22:00,
2013-12-30 10:37:00,19.4,13.1,30.19,WSW,247,3.2,-999.0,76,-99.99,,,0.00,Acu-Link.com,2013-12-30 15:37:00,
2013-12-30 10:52:00,21.0,13.7,30.20,WNW,292,3.7,-999.0,73,-99.99,,,0.00,Acu-Link.com,2013-12-30 15:52:00,
2013-12-30 11:07:00,19.9,13.3,30.21,West,270,3.7,-999.0,75,-99.99,,,0.00,Acu-Link.com,2013-12-30 16:07:00,
2013-12-30 11:22:00,21.2,14.5,30.20,SW,225,1.7,-999.0,75,-99.99,,,0.00,Acu-Link.com,2013-12-30 16:22:00,
2013-12-30 11:37:00,21.4,13.2,30.21,South,180,2.7,-999.0,70,-99.99,,,0.00,Acu-Link.com,2013-12-30 16:37:00,
2013-12-30 11:52:00,21.6,14.0,30.21,NW,315,1.7,-999.0,72,-99.99,,,0.00,Acu-Link.com,2013-12-30 16:52:00,
2013-12-30 12:07:00,24.4,16.0,30.21,ESE,112,2.2,-999.0,70,-99.99,,,0.00,Acu-Link.com,2013-12-30 17:07:00,
2013-12-30 12:22:00,24.1,14.8,30.20,SE,135,3.2,-999.0,67,-99.99,,,0.00,Acu-Link.com,2013-12-30 17:22:00,
2013-12-30 12:38:00,23.7,14.7,30.19,NE,45,2.2,-999.0,68,-99.99,,,0.00,Acu-Link.com,2013-12-30 17:38:00,
2013-12-30 12:53:00,24.1,16.4,30.18,NW,315,2.2,-999.0,72,-99.99,,,0.00,Acu-Link.com,2013-12-30 17:53:00,
2013-12-30 13:08:00,24.8,15.1,30.17,SSE,157,3.2,-999.0,66,-99.99,,,0.00,Acu-Link.com,2013-12-30 18:08:00,
2013-12-30 13:23:00,25.2,15.8,30.17,NNE,22,2.2,-999.0,67,-99.99,,,0.00,Acu-Link.com,2013-12-30 18:23:00,
2013-12-30 13:38:00,27.0,15.7,30.16,West,270,4.7,-999.0,62,-99.99,,,0.00,Acu-Link.com,2013-12-30 18:38:00,
2013-12-30 13:53:00,25.0,15.3,30.16,NW,315,1.7,-999.0,66,-99.99,,,0.00,Acu-Link.com,2013-12-30 18:53:00,
2013-12-30 14:08:00,25.5,15.7,30.15,SW,225,1.7,-999.0,66,-99.99,,,0.00,Acu-Link.com,2013-12-30 19:08:00,
2013-12-30 14:23:00,22.6,14.0,30.15,South,180,1.7,-999.0,69,-99.99,,,0.00,Acu-Link.com,2013-12-30 19:23:00,
2013-12-30 14:38:00,23.4,14.1,30.14,ESE,112,1.7,-999.0,67,-99.99,,,0.00,Acu-Link.com,2013-12-30 19:38:00,
2013-12-30 14:54:00,24.3,14.6,30.13,SSW,202,0.0,-999.0,66,-99.99,,,0.00,Acu-Link.com,2013-12-30 19:54:00,
2013-12-30 15:09:00,23.2,14.6,30.12,NW,315,2.7,-999.0,69,-99.99,,,0.00,Acu-Link.com,2013-12-30 20:09:00,
2013-12-30 15:24:00,23.9,14.2,30.11,West,270,1.7,-999.0,66,-99.99,,,0.00,Acu-Link.com,2013-12-30 20:24:00,
2013-12-30 15:39:00,22.8,14.2,30.11,WSW,247,2.7,-999.0,69,-99.99,,,0.00,Acu-Link.com,2013-12-30 20:39:00,
2013-12-30 15:54:00,22.1,13.5,30.11,West,270,1.7,-999.0,69,-99.99,,,0.00,Acu-Link.com,2013-12-30 20:54:00,
2013-12-30 16:09:00,22.5,13.9,30.13,West,270,1.7,-999.0,69,-99.99,,,0.00,Acu-Link.com,2013-12-30 21:09:00,
2013-12-30 16:24:00,21.9,14.3,30.14,West,270,3.7,-999.0,72,-99.99,,,0.00,Acu-Link.com,2013-12-30 21:24:00,
2013-12-30 16:39:00,21.6,13.7,30.14,SW,225,4.2,-999.0,71,-99.99,,,0.00,Acu-Link.com,2013-12-30 21:39:00,
2013-12-30 16:54:00,21.2,13.9,30.14,SSW,202,1.1,-999.0,73,-99.99,,,0.00,Acu-Link.com,2013-12-30 21:54:00,
2013-12-30 17:10:00,21.4,13.8,30.15,WNW,292,2.2,-999.0,72,-99.99,,,0.00,Acu-Link.com,2013-12-30 22:10:00,
2013-12-30 17:25:00,20.5,13.9,30.15,SSW,202,1.7,-999.0,75,-99.99,,,0.00,Acu-Link.com,2013-12-30 22:25:00,
2013-12-30 17:40:00,19.9,13.9,30.14,WSW,247,1.7,-999.0,77,-99.99,,,0.00,Acu-Link.com,2013-12-30 22:40:00,
2013-12-30 17:55:00,19.4,13.7,30.13,SW,225,2.2,-999.0,78,-99.99,,,0.00,Acu-Link.com,2013-12-30 22:55:00,
2013-12-30 18:10:00,18.9,13.5,30.13,WNW,292,0.0,-999.0,79,-99.99,,,0.00,Acu-Link.com,2013-12-30 23:10:00,
2013-12-30 18:25:00,18.9,13.8,30.12,West,270,0.0,-999.0,80,-99.99,,,0.00,Acu-Link.com,2013-12-30 23:25:00,
2013-12-30 18:40:00,18.9,13.8,30.12,West,270,0.0,-999.0,80,-99.99,,,0.00,Acu-Link.com,2013-12-30 23:40:00,
2013-12-30 18:55:00,18.5,13.7,30.12,West,270,0.0,-999.0,81,-99.99,,,0.00,Acu-Link.com,2013-12-30 23:55:00,
2013-12-30 19:10:00,19.0,14.7,30.12,West,270,1.1,-999.0,83,-99.99,,,0.00,Acu-Link.com,2013-12-31 00:10:00,
2013-12-30 19:26:00,19.2,14.6,30.12,South,180,0.0,-999.0,82,-99.99,,,0.00,Acu-Link.com,2013-12-31 00:26:00,
2013-12-30 19:41:00,19.2,14.1,30.12,NW,315,1.7,-999.0,80,-99.99,,,0.00,Acu-Link.com,2013-12-31 00:41:00,
2013-12-30 19:56:00,18.9,13.5,30.13,SW,225,2.7,-999.0,79,-99.99,,,0.00,Acu-Link.com,2013-12-31 00:56:00,
2013-12-30 20:11:00,18.7,13.3,30.14,NNW,337,2.7,-999.0,79,-99.99,,,0.00,Acu-Link.com,2013-12-31 01:11:00,
2013-12-30 20:26:00,18.7,13.0,30.14,WSW,247,3.2,-999.0,78,-99.99,,,0.00,Acu-Link.com,2013-12-31 01:26:00,
2013-12-30 20:41:00,19.0,13.6,30.14,South,180,0.0,-999.0,79,-99.99,,,0.00,Acu-Link.com,2013-12-31 01:41:00,
2013-12-30 20:56:00,18.9,13.8,30.13,SE,135,1.1,-999.0,80,-99.99,,,0.00,Acu-Link.com,2013-12-31 01:56:00,
2013-12-30 21:11:00,19.0,14.1,30.13,SE,135,0.0,-999.0,81,-99.99,,,0.00,Acu-Link.com,2013-12-31 02:11:00,
2013-12-30 21:26:00,18.9,14.3,30.13,SSE,157,1.1,-999.0,82,-99.99,,,0.00,Acu-Link.com,2013-12-31 02:26:00,
2013-12-30 21:42:00,19.0,13.9,30.13,West,270,3.2,-999.0,80,-99.99,,,0.00,Acu-Link.com,2013-12-31 02:42:00,
2013-12-30 21:57:00,19.6,14.5,30.12,South,180,3.2,-999.0,80,-99.99,,,0.00,Acu-Link.com,2013-12-31 02:57:00,
2013-12-30 22:12:00,19.4,13.7,30.10,South,180,6.8,-999.0,78,-99.99,,,0.00,Acu-Link.com,2013-12-31 03:12:00,
2013-12-30 22:27:00,19.6,14.2,30.11,North,0,2.2,-999.0,79,-99.99,,,0.00,Acu-Link.com,2013-12-31 03:27:00,
2013-12-30 22:42:00,19.6,13.9,30.13,West,270,6.3,-999.0,78,-99.99,,,0.00,Acu-Link.com,2013-12-31 03:42:00,
2013-12-30 22:57:00,19.6,14.2,30.13,WNW,292,4.7,-999.0,79,-99.99,,,0.00,Acu-Link.com,2013-12-31 03:57:00,
2013-12-30 23:12:00,19.6,14.2,30.13,East,90,2.7,-999.0,79,-99.99,,,0.00,Acu-Link.com,2013-12-31 04:12:00,
2013-12-30 23:27:00,19.8,14.4,30.12,West,270,2.2,-999.0,79,-99.99,,,0.00,Acu-Link.com,2013-12-31 04:27:00,
2013-12-30 23:42:00,19.8,14.4,30.11,West,270,2.2,-999.0,79,-99.99,,,0.00,Acu-Link.com,2013-12-31 04:42:00,
2013-12-30 23:58:00,19.8,14.4,30.12,WSW,247,3.7,-999.0,79,-99.99,,,0.00,Acu-Link.com,2013-12-31 04:58:00,